sensor_id;sensor_type;location;lat;lon;timestamp;pressure;altitude;pressure_sealevel;temperature;humidity
69842;BME280;57138;51.326;-0.068;2023-07-31T00:00:11;99171.06;;;15.55;100.00
69842;BME280;57138;51.326;-0.068;2023-07-31T00:02:36;99173.84;;;15.60;100.00
69842;BME280;57138;51.326;-0.068;2023-07-31T00:05:02;99158.50;;;15.43;100.00
69842;BME280;57138;51.326;-0.068;2023-07-31T00:07:28;99167.81;;;15.53;100.00
69842;BME280;57138;51.326;-0.068;2023-07-31T00:09:53;99150.97;;;15.45;100.00
69842;BME280;57138;51.326;-0.068;2023-07-31T00:12:19;99146.56;;;15.39;100.00
69842;BME280;57138;51.326;-0.068;2023-07-31T00:14:45;99155.88;;;15.49;100.00
69842;BME280;57138;51.326;-0.068;2023-07-31T00:17:11;99156.38;;;15.45;100.00
69842;BME280;57138;51.326;-0.068;2023-07-31T00:19:36;99149.03;;;15.41;100.00
69842;BME280;57138;51.326;-0.068;2023-07-31T00:22:02;99133.59;;;15.36;100.00
69842;BME280;57138;51.326;-0.068;2023-07-31T00:24:27;99148.53;;;15.44;100.00
69842;BME280;57138;51.326;-0.068;2023-07-31T00:26:53;99148.53;;;15.44;100.00
69842;BME280;57138;51.326;-0.068;2023-07-31T00:29:18;99130.91;;;15.36;100.00
69842;BME280;57138;51.326;-0.068;2023-07-31T00:31:44;99133.69;;;15.41;100.00
69842;BME280;57138;51.326;-0.068;2023-07-31T00:34:09;99126.44;;;15.42;100.00
69842;BME280;57138;51.326;-0.068;2023-07-31T00:36:34;99139.72;;;15.49;100.00
69842;BME280;57138;51.326;-0.068;2023-07-31T00:39:00;99117.38;;;15.31;100.00
69842;BME280;57138;51.326;-0.068;2023-07-31T00:41:26;99114.19;;;15.34;100.00
69842;BME280;57138;51.326;-0.068;2023-07-31T00:43:51;99114.91;;;15.46;100.00
69842;BME280;57138;51.326;-0.068;2023-07-31T00:46:17;99119.97;;;15.43;100.00
69842;BME280;57138;51.326;-0.068;2023-07-31T00:48:42;99113.59;;;15.49;100.00
69842;BME280;57138;51.326;-0.068;2023-07-31T00:51:08;99124.63;;;15.48;100.00
69842;BME280;57138;51.326;-0.068;2023-07-31T00:53:36;99122.50;;;15.50;100.00
69842;BME280;57138;51.326;-0.068;2023-07-31T00:56:01;99099.25;;;15.43;100.00
69842;BME280;57138;51.326;-0.068;2023-07-31T00:58:27;99107.38;;;15.49;100.00
69842;BME280;57138;51.326;-0.068;2023-07-31T01:00:53;99088.72;;;15.42;100.00
69842;BME280;57138;51.326;-0.068;2023-07-31T01:03:19;99083.56;;;15.40;100.00
69842;BME280;57138;51.326;-0.068;2023-07-31T01:09:06;99086.66;;;15.49;100.00
69842;BME280;57138;51.326;-0.068;2023-07-31T01:11:38;99074.00;;;15.50;100.00
69842;BME280;57138;51.326;-0.068;2023-07-31T01:14:08;99070.16;;;15.45;100.00
69842;BME280;57138;51.326;-0.068;2023-07-31T01:16:34;99074.91;;;15.55;100.00
69842;BME280;57138;51.326;-0.068;2023-07-31T01:18:59;99050.75;;;15.43;100.00
69842;BME280;57138;51.326;-0.068;2023-07-31T01:24:35;99055.22;;;15.55;100.00
69842;BME280;57138;51.326;-0.068;2023-07-31T01:27:23;99047.72;;;15.57;100.00
69842;BME280;57138;51.326;-0.068;2023-07-31T01:29:59;99055.28;;;15.60;100.00
69842;BME280;57138;51.326;-0.068;2023-07-31T01:32:27;99040.63;;;15.51;100.00
69842;BME280;57138;51.326;-0.068;2023-07-31T01:34:57;99034.50;;;15.55;100.00
69842;BME280;57138;51.326;-0.068;2023-07-31T01:37:29;99045.06;;;15.62;100.00
69842;BME280;57138;51.326;-0.068;2023-07-31T01:39:55;99041.06;;;15.64;100.00
69842;BME280;57138;51.326;-0.068;2023-07-31T01:42:20;99019.63;;;15.53;100.00
69842;BME280;57138;51.326;-0.068;2023-07-31T01:44:46;99019.19;;;15.61;100.00
69842;BME280;57138;51.326;-0.068;2023-07-31T01:47:11;99017.31;;;15.61;100.00
69842;BME280;57138;51.326;-0.068;2023-07-31T01:49:36;99008.34;;;15.56;100.00
69842;BME280;57138;51.326;-0.068;2023-07-31T01:52:02;99014.13;;;15.64;100.00
69842;BME280;57138;51.326;-0.068;2023-07-31T01:54:27;98990.31;;;15.56;100.00
69842;BME280;57138;51.326;-0.068;2023-07-31T01:56:53;99009.53;;;15.65;100.00
69842;BME280;57138;51.326;-0.068;2023-07-31T01:59:18;99002.75;;;15.62;100.00
69842;BME280;57138;51.326;-0.068;2023-07-31T02:01:43;98997.13;;;15.64;100.00
69842;BME280;57138;51.326;-0.068;2023-07-31T02:04:09;98953.78;;;15.43;100.00
69842;BME280;57138;51.326;-0.068;2023-07-31T02:06:34;98977.97;;;15.60;100.00
69842;BME280;57138;51.326;-0.068;2023-07-31T02:09:00;98977.41;;;15.58;100.00
69842;BME280;57138;51.326;-0.068;2023-07-31T02:11:25;98988.78;;;15.66;100.00
69842;BME280;57138;51.326;-0.068;2023-07-31T02:13:50;98983.91;;;15.62;100.00
69842;BME280;57138;51.326;-0.068;2023-07-31T02:16:16;98971.81;;;15.65;100.00
69842;BME280;57138;51.326;-0.068;2023-07-31T02:18:41;98964.28;;;15.67;100.00
69842;BME280;57138;51.326;-0.068;2023-07-31T02:21:07;98970.50;;;15.68;100.00
69842;BME280;57138;51.326;-0.068;2023-07-31T02:23:32;98972.38;;;15.67;100.00
69842;BME280;57138;51.326;-0.068;2023-07-31T02:25:57;98945.09;;;15.58;100.00
69842;BME280;57138;51.326;-0.068;2023-07-31T02:28:23;98959.75;;;15.68;100.00
69842;BME280;57138;51.326;-0.068;2023-07-31T02:30:50;98949.72;;;15.63;100.00
69842;BME280;57138;51.326;-0.068;2023-07-31T02:33:16;98962.78;;;15.76;100.00
69842;BME280;57138;51.326;-0.068;2023-07-31T02:35:41;98950.31;;;15.70;100.00
69842;BME280;57138;51.326;-0.068;2023-07-31T02:38:07;98935.16;;;15.64;100.00
69842;BME280;57138;51.326;-0.068;2023-07-31T02:40:32;98928.09;;;15.58;100.00
69842;BME280;57138;51.326;-0.068;2023-07-31T02:42:58;98930.84;;;15.63;100.00
69842;BME280;57138;51.326;-0.068;2023-07-31T02:45:23;98949.91;;;15.78;100.00
69842;BME280;57138;51.326;-0.068;2023-07-31T02:47:49;98945.31;;;15.79;100.00
69842;BME280;57138;51.326;-0.068;2023-07-31T02:50:14;98950.47;;;15.80;100.00
69842;BME280;57138;51.326;-0.068;2023-07-31T02:52:39;98921.81;;;15.74;100.00
69842;BME280;57138;51.326;-0.068;2023-07-31T02:55:06;98921.81;;;15.74;100.00
69842;BME280;57138;51.326;-0.068;2023-07-31T02:57:31;98924.25;;;15.76;100.00
69842;BME280;57138;51.326;-0.068;2023-07-31T02:59:57;98926.47;;;15.79;100.00
69842;BME280;57138;51.326;-0.068;2023-07-31T03:02:22;98914.63;;;15.80;100.00
69842;BME280;57138;51.326;-0.068;2023-07-31T03:04:48;98926.50;;;15.84;100.00
69842;BME280;57138;51.326;-0.068;2023-07-31T03:07:13;98921.31;;;15.77;100.00
69842;BME280;57138;51.326;-0.068;2023-07-31T03:09:38;98932.69;;;15.85;100.00
69842;BME280;57138;51.326;-0.068;2023-07-31T03:12:04;98922.25;;;15.88;100.00
69842;BME280;57138;51.326;-0.068;2023-07-31T03:14:29;98905.69;;;15.79;100.00
69842;BME280;57138;51.326;-0.068;2023-07-31T03:16:55;98917.63;;;15.84;100.00
69842;BME280;57138;51.326;-0.068;2023-07-31T03:19:20;98921.41;;;15.88;100.00
69842;BME280;57138;51.326;-0.068;2023-07-31T03:21:46;98927.13;;;15.91;100.00
69842;BME280;57138;51.326;-0.068;2023-07-31T03:24:11;98918.44;;;15.89;100.00
69842;BME280;57138;51.326;-0.068;2023-07-31T03:26:37;98934.94;;;15.93;100.00
69842;BME280;57138;51.326;-0.068;2023-07-31T03:29:03;98923.03;;;15.89;100.00
69842;BME280;57138;51.326;-0.068;2023-07-31T03:31:29;98913.78;;;15.79;100.00
69842;BME280;57138;51.326;-0.068;2023-07-31T03:33:54;98915.50;;;15.91;100.00
69842;BME280;57138;51.326;-0.068;2023-07-31T03:36:19;98910.28;;;15.79;100.00
69842;BME280;57138;51.326;-0.068;2023-07-31T03:38:46;98936.63;;;15.99;100.00
69842;BME280;57138;51.326;-0.068;2023-07-31T03:41:12;98924.75;;;16.00;100.00
69842;BME280;57138;51.326;-0.068;2023-07-31T03:43:38;98930.16;;;16.00;100.00
69842;BME280;57138;51.326;-0.068;2023-07-31T03:46:03;98917.75;;;15.99;100.00
69842;BME280;57138;51.326;-0.068;2023-07-31T03:48:29;98898.78;;;15.89;100.00
69842;BME280;57138;51.326;-0.068;2023-07-31T03:50:54;98909.66;;;15.99;100.00
69842;BME280;57138;51.326;-0.068;2023-07-31T03:53:20;98906.47;;;16.02;100.00
69842;BME280;57138;51.326;-0.068;2023-07-31T03:55:46;98906.50;;;16.07;100.00
69842;BME280;57138;51.326;-0.068;2023-07-31T03:58:11;98885.41;;;15.99;100.00
69842;BME280;57138;51.326;-0.068;2023-07-31T04:00:37;98882.72;;;15.99;100.00
69842;BME280;57138;51.326;-0.068;2023-07-31T04:03:02;98890.06;;;16.09;100.00
69842;BME280;57138;51.326;-0.068;2023-07-31T04:05:30;98894.13;;;16.11;100.00
69842;BME280;57138;51.326;-0.068;2023-07-31T04:07:55;98881.72;;;16.10;100.00
69842;BME280;57138;51.326;-0.068;2023-07-31T04:10:20;98870.38;;;16.08;100.00
69842;BME280;57138;51.326;-0.068;2023-07-31T04:12:46;98870.91;;;16.05;100.00
69842;BME280;57138;51.326;-0.068;2023-07-31T04:15:11;98872.50;;;16.06;100.00
69842;BME280;57138;51.326;-0.068;2023-07-31T04:17:37;98864.38;;;16.01;100.00
69842;BME280;57138;51.326;-0.068;2023-07-31T04:20:02;98884.16;;;16.12;100.00
69842;BME280;57138;51.326;-0.068;2023-07-31T04:22:28;98881.44;;;16.07;100.00
69842;BME280;57138;51.326;-0.068;2023-07-31T04:24:53;98878.47;;;16.08;100.00
69842;BME280;57138;51.326;-0.068;2023-07-31T04:27:19;98887.72;;;16.17;100.00
69842;BME280;57138;51.326;-0.068;2023-07-31T04:29:44;98865.25;;;16.07;100.00
69842;BME280;57138;51.326;-0.068;2023-07-31T04:32:12;98874.50;;;16.16;100.00
69842;BME280;57138;51.326;-0.068;2023-07-31T04:34:37;98849.34;;;16.10;100.00
69842;BME280;57138;51.326;-0.068;2023-07-31T04:37:03;98874.78;;;16.20;100.00
69842;BME280;57138;51.326;-0.068;2023-07-31T04:39:28;98874.25;;;16.23;100.00
69842;BME280;57138;51.326;-0.068;2023-07-31T04:41:53;98868.25;;;16.15;100.00
69842;BME280;57138;51.326;-0.068;2023-07-31T04:44:19;98868.84;;;16.17;100.00
69842;BME280;57138;51.326;-0.068;2023-07-31T04:46:44;98863.72;;;16.16;100.00
69842;BME280;57138;51.326;-0.068;2023-07-31T04:49:10;98865.31;;;16.17;100.00
69842;BME280;57138;51.326;-0.068;2023-07-31T04:51:35;98881.84;;;16.26;100.00
69842;BME280;57138;51.326;-0.068;2023-07-31T04:54:01;98890.47;;;16.28;100.00
69842;BME280;57138;51.326;-0.068;2023-07-31T04:56:27;98875.91;;;16.24;100.00
69842;BME280;57138;51.326;-0.068;2023-07-31T04:58:52;98884.81;;;16.29;100.00
69842;BME280;57138;51.326;-0.068;2023-07-31T05:01:17;98889.41;;;16.29;100.00
69842;BME280;57138;51.326;-0.068;2023-07-31T05:03:43;98888.59;;;16.28;100.00
69842;BME280;57138;51.326;-0.068;2023-07-31T05:06:09;98859.63;;;16.13;100.00
69842;BME280;57138;51.326;-0.068;2023-07-31T05:08:35;98867.81;;;16.24;100.00
69842;BME280;57138;51.326;-0.068;2023-07-31T05:11:01;98864.78;;;16.20;100.00
69842;BME280;57138;51.326;-0.068;2023-07-31T05:13:27;98860.22;;;16.21;100.00
69842;BME280;57138;51.326;-0.068;2023-07-31T05:15:52;98872.44;;;16.28;100.00
69842;BME280;57138;51.326;-0.068;2023-07-31T05:18:17;98868.88;;;16.23;100.00
69842;BME280;57138;51.326;-0.068;2023-07-31T05:20:43;98861.06;;;16.26;100.00
69842;BME280;57138;51.326;-0.068;2023-07-31T05:23:08;98867.84;;;16.29;100.00
69842;BME280;57138;51.326;-0.068;2023-07-31T05:25:34;98882.47;;;16.38;100.00
69842;BME280;57138;51.326;-0.068;2023-07-31T05:27:59;98868.13;;;16.32;100.00
69842;BME280;57138;51.326;-0.068;2023-07-31T05:30:25;98879.25;;;16.41;100.00
69842;BME280;57138;51.326;-0.068;2023-07-31T05:32:51;98858.13;;;16.33;100.00
69842;BME280;57138;51.326;-0.068;2023-07-31T05:35:17;98871.97;;;16.47;100.00
69842;BME280;57138;51.326;-0.068;2023-07-31T05:37:43;98864.13;;;16.40;100.00
69842;BME280;57138;51.326;-0.068;2023-07-31T05:40:08;98860.88;;;16.38;100.00
69842;BME280;57138;51.326;-0.068;2023-07-31T05:42:34;98864.19;;;16.50;100.00
69842;BME280;57138;51.326;-0.068;2023-07-31T05:45:00;98853.34;;;16.45;100.00
69842;BME280;57138;51.326;-0.068;2023-07-31T05:47:26;98857.72;;;16.51;100.00
69842;BME280;57138;51.326;-0.068;2023-07-31T05:49:51;98867.44;;;16.52;100.00
69842;BME280;57138;51.326;-0.068;2023-07-31T05:52:19;98853.41;;;16.50;100.00
69842;BME280;57138;51.326;-0.068;2023-07-31T05:54:44;98855.59;;;16.53;100.00
69842;BME280;57138;51.326;-0.068;2023-07-31T05:57:11;98878.31;;;16.63;100.00
69842;BME280;57138;51.326;-0.068;2023-07-31T05:59:36;98874.50;;;16.64;100.00
69842;BME280;57138;51.326;-0.068;2023-07-31T06:02:02;98862.63;;;16.60;100.00
69842;BME280;57138;51.326;-0.068;2023-07-31T06:04:27;98864.25;;;16.61;100.00
69842;BME280;57138;51.326;-0.068;2023-07-31T06:06:53;98875.09;;;16.71;100.00
69842;BME280;57138;51.326;-0.068;2023-07-31T06:09:18;98871.84;;;16.69;100.00
69842;BME280;57138;51.326;-0.068;2023-07-31T06:11:45;98868.38;;;16.74;100.00
69842;BME280;57138;51.326;-0.068;2023-07-31T06:14:11;98870.81;;;16.75;100.00
69842;BME280;57138;51.326;-0.068;2023-07-31T06:16:36;98868.66;;;16.77;100.00
69842;BME280;57138;51.326;-0.068;2023-07-31T06:19:02;98871.38;;;16.82;100.00
69842;BME280;57138;51.326;-0.068;2023-07-31T06:21:27;98849.75;;;16.72;100.00
69842;BME280;57138;51.326;-0.068;2023-07-31T06:23:53;98873.59;;;16.91;100.00
69842;BME280;57138;51.326;-0.068;2023-07-31T06:26:18;98867.13;;;16.86;100.00
69842;BME280;57138;51.326;-0.068;2023-07-31T06:28:44;98870.38;;;16.94;100.00
69842;BME280;57138;51.326;-0.068;2023-07-31T06:31:09;98868.78;;;16.98;100.00
69842;BME280;57138;51.326;-0.068;2023-07-31T06:33:35;98873.66;;;17.01;100.00
69842;BME280;57138;51.326;-0.068;2023-07-31T06:36:00;98873.97;;;17.10;100.00
69842;BME280;57138;51.326;-0.068;2023-07-31T06:38:26;98863.44;;;17.08;100.00
69842;BME280;57138;51.326;-0.068;2023-07-31T06:40:52;98862.91;;;17.21;100.00
69842;BME280;57138;51.326;-0.068;2023-07-31T06:43:18;98833.97;;;17.06;100.00
69842;BME280;57138;51.326;-0.068;2023-07-31T06:45:43;98858.03;;;17.18;100.00
69842;BME280;57138;51.326;-0.068;2023-07-31T06:48:09;98852.09;;;17.16;100.00
69842;BME280;57138;51.326;-0.068;2023-07-31T06:50:35;98872.13;;;17.25;100.00
69842;BME280;57138;51.326;-0.068;2023-07-31T06:53:00;98875.34;;;17.28;100.00
69842;BME280;57138;51.326;-0.068;2023-07-31T06:55:26;98881.03;;;17.26;100.00
69842;BME280;57138;51.326;-0.068;2023-07-31T06:57:53;98865.06;;;17.19;100.00
69842;BME280;57138;51.326;-0.068;2023-07-31T07:00:22;98868.31;;;17.21;100.00
69842;BME280;57138;51.326;-0.068;2023-07-31T07:02:48;98844.22;;;17.04;100.00
69842;BME280;57138;51.326;-0.068;2023-07-31T07:05:14;98858.06;;;17.23;100.00
69842;BME280;57138;51.326;-0.068;2023-07-31T07:07:40;98855.91;;;17.25;100.00
69842;BME280;57138;51.326;-0.068;2023-07-31T07:10:06;98855.38;;;17.29;100.00
69842;BME280;57138;51.326;-0.068;2023-07-31T07:12:32;98835.38;;;17.24;100.00
69842;BME280;57138;51.326;-0.068;2023-07-31T07:14:59;98838.09;;;17.30;100.00
69842;BME280;57138;51.326;-0.068;2023-07-31T07:17:25;98837.31;;;17.39;100.00
69842;BME280;57138;51.326;-0.068;2023-07-31T07:19:52;98828.94;;;17.36;100.00
69842;BME280;57138;51.326;-0.068;2023-07-31T07:22:18;98831.06;;;17.39;100.00
69842;BME280;57138;51.326;-0.068;2023-07-31T07:24:46;98829.47;;;17.43;100.00
69842;BME280;57138;51.326;-0.068;2023-07-31T07:27:12;98832.19;;;17.53;100.00
69842;BME280;57138;51.326;-0.068;2023-07-31T07:29:38;98843.00;;;17.53;100.00
69842;BME280;57138;51.326;-0.068;2023-07-31T07:32:05;98825.16;;;17.52;100.00
69842;BME280;57138;51.326;-0.068;2023-07-31T07:34:31;98832.47;;;17.52;100.00
69842;BME280;57138;51.326;-0.068;2023-07-31T07:36:56;98819.50;;;17.49;100.00
69842;BME280;57138;51.326;-0.068;2023-07-31T07:39:22;98798.66;;;17.39;100.00
69842;BME280;57138;51.326;-0.068;2023-07-31T07:41:47;98805.44;;;17.52;100.00
69842;BME280;57138;51.326;-0.068;2023-07-31T07:44:13;98821.13;;;17.60;100.00
69842;BME280;57138;51.326;-0.068;2023-07-31T07:46:39;98813.81;;;17.55;100.00
69842;BME280;57138;51.326;-0.068;2023-07-31T07:49:05;98804.06;;;17.39;100.00
69842;BME280;57138;51.326;-0.068;2023-07-31T07:51:30;98817.31;;;17.51;100.00
69842;BME280;57138;51.326;-0.068;2023-07-31T07:53:59;98814.88;;;17.49;100.00
69842;BME280;57138;51.326;-0.068;2023-07-31T07:56:25;98802.19;;;17.45;100.00
69842;BME280;57138;51.326;-0.068;2023-07-31T07:58:52;98808.94;;;17.52;100.00
69842;BME280;57138;51.326;-0.068;2023-07-31T08:01:18;98806.78;;;17.54;100.00
69842;BME280;57138;51.326;-0.068;2023-07-31T08:03:43;98808.44;;;17.66;100.00
69842;BME280;57138;51.326;-0.068;2023-07-31T08:06:09;98794.38;;;17.74;100.00
69842;BME280;57138;51.326;-0.068;2023-07-31T08:08:35;98783.03;;;17.72;100.00
69842;BME280;57138;51.326;-0.068;2023-07-31T08:11:01;98798.41;;;17.82;100.00
69842;BME280;57138;51.326;-0.068;2023-07-31T08:13:26;98777.06;;;17.85;100.00
69842;BME280;57138;51.326;-0.068;2023-07-31T08:15:52;98783.84;;;17.93;100.00
69842;BME280;57138;51.326;-0.068;2023-07-31T08:18:17;98797.09;;;18.05;100.00
69842;BME280;57138;51.326;-0.068;2023-07-31T08:20:44;98793.78;;;18.18;100.00
69842;BME280;57138;51.326;-0.068;2023-07-31T08:23:09;98791.09;;;18.23;100.00
69842;BME280;57138;51.326;-0.068;2023-07-31T08:25:36;98788.91;;;18.25;100.00
69842;BME280;57138;51.326;-0.068;2023-07-31T08:28:05;98767.28;;;18.15;100.00
69842;BME280;57138;51.326;-0.068;2023-07-31T08:30:31;98762.94;;;18.24;100.00
69842;BME280;57138;51.326;-0.068;2023-07-31T08:32:58;98764.81;;;18.29;100.00
69842;BME280;57138;51.326;-0.068;2023-07-31T08:35:24;98761.88;;;18.25;100.00
69842;BME280;57138;51.326;-0.068;2023-07-31T08:37:51;98769.97;;;18.30;100.00
69842;BME280;57138;51.326;-0.068;2023-07-31T08:40:16;98763.22;;;18.28;100.00
69842;BME280;57138;51.326;-0.068;2023-07-31T08:42:53;98768.31;;;18.40;100.00
69842;BME280;57138;51.326;-0.068;2023-07-31T08:45:19;98782.91;;;18.49;100.00
69842;BME280;57138;51.326;-0.068;2023-07-31T08:47:47;98760.16;;;18.45;100.00
69842;BME280;57138;51.326;-0.068;2023-07-31T08:50:14;98775.81;;;18.58;100.00
69842;BME280;57138;51.326;-0.068;2023-07-31T08:52:39;98769.63;;;18.58;100.00
69842;BME280;57138;51.326;-0.068;2023-07-31T08:55:06;98769.34;;;18.54;100.00
69842;BME280;57138;51.326;-0.068;2023-07-31T08:57:35;98753.41;;;18.47;100.00
69842;BME280;57138;51.326;-0.068;2023-07-31T09:00:03;98746.66;;;18.40;100.00
69842;BME280;57138;51.326;-0.068;2023-07-31T09:02:56;98742.88;;;18.41;100.00
69842;BME280;57138;51.326;-0.068;2023-07-31T09:05:20;98761.78;;;18.56;100.00
69842;BME280;57138;51.326;-0.068;2023-07-31T09:07:47;98775.31;;;18.56;100.00
69842;BME280;57138;51.326;-0.068;2023-07-31T09:10:14;98754.75;;;18.50;100.00
69842;BME280;57138;51.326;-0.068;2023-07-31T09:12:39;98753.94;;;18.49;100.00
69842;BME280;57138;51.326;-0.068;2023-07-31T09:15:06;98763.94;;;18.54;100.00
69842;BME280;57138;51.326;-0.068;2023-07-31T09:17:36;98757.97;;;18.57;100.00
69842;BME280;57138;51.326;-0.068;2023-07-31T09:20:19;98744.16;;;18.59;100.00
69842;BME280;57138;51.326;-0.068;2023-07-31T09:22:46;98746.53;;;18.71;100.00
69842;BME280;57138;51.326;-0.068;2023-07-31T09:25:22;98741.16;;;18.60;100.00
69842;BME280;57138;51.326;-0.068;2023-07-31T09:27:57;98753.59;;;18.72;100.00
69842;BME280;57138;51.326;-0.068;2023-07-31T09:30:23;98738.47;;;18.65;99.19
69842;BME280;57138;51.326;-0.068;2023-07-31T09:32:49;98746.03;;;18.63;98.12
69842;BME280;57138;51.326;-0.068;2023-07-31T09:35:22;98747.13;;;18.57;100.00
69842;BME280;57138;51.326;-0.068;2023-07-31T09:37:53;98739.03;;;18.52;99.91
69842;BME280;57138;51.326;-0.068;2023-07-31T09:40:32;98730.69;;;18.48;100.00
69842;BME280;57138;51.326;-0.068;2023-07-31T09:43:02;98741.78;;;18.47;100.00
69842;BME280;57138;51.326;-0.068;2023-07-31T09:45:28;98740.16;;;18.46;100.00
69842;BME280;57138;51.326;-0.068;2023-07-31T09:47:55;98715.03;;;18.40;100.00
69842;BME280;57138;51.326;-0.068;2023-07-31T09:50:22;98708.19;;;18.48;100.00
69842;BME280;57138;51.326;-0.068;2023-07-31T09:52:48;98709.00;;;18.54;100.00
69842;BME280;57138;51.326;-0.068;2023-07-31T09:55:13;98707.81;;;18.75;100.00
69842;BME280;57138;51.326;-0.068;2023-07-31T09:57:45;98683.75;;;18.68;100.00
69842;BME280;57138;51.326;-0.068;2023-07-31T10:00:12;98716.56;;;19.07;100.00
69842;BME280;57138;51.326;-0.068;2023-07-31T10:02:38;98700.72;;;19.24;100.00
69842;BME280;57138;51.326;-0.068;2023-07-31T10:05:05;98708.91;;;19.53;100.00
69842;BME280;57138;51.326;-0.068;2023-07-31T10:07:36;98714.28;;;19.88;100.00
69842;BME280;57138;51.326;-0.068;2023-07-31T10:10:04;98691.91;;;20.01;99.16
69842;BME280;57138;51.326;-0.068;2023-07-31T10:12:32;98676.38;;;20.31;98.60
69842;BME280;57138;51.326;-0.068;2023-07-31T10:14:59;98654.06;;;20.34;97.85
69842;BME280;57138;51.326;-0.068;2023-07-31T10:17:26;98659.88;;;20.46;87.26
69842;BME280;57138;51.326;-0.068;2023-07-31T10:19:52;98662.72;;;20.36;93.04
69842;BME280;57138;51.326;-0.068;2023-07-31T10:22:19;98704.03;;;20.33;94.69
69842;BME280;57138;51.326;-0.068;2023-07-31T10:24:46;98705.25;;;20.22;92.57
69842;BME280;57138;51.326;-0.068;2023-07-31T10:27:12;98712.91;;;20.15;91.42
69842;BME280;57138;51.326;-0.068;2023-07-31T10:29:38;98700.56;;;20.03;90.74
69842;BME280;57138;51.326;-0.068;2023-07-31T10:32:06;98689.31;;;19.91;89.47
69842;BME280;57138;51.326;-0.068;2023-07-31T10:34:36;98664.03;;;19.66;90.81
69842;BME280;57138;51.326;-0.068;2023-07-31T10:37:26;98689.44;;;19.81;94.33
69842;BME280;57138;51.326;-0.068;2023-07-31T10:39:59;98709.97;;;19.87;93.41
69842;BME280;57138;51.326;-0.068;2023-07-31T10:42:30;98706.34;;;19.97;93.86
69842;BME280;57138;51.326;-0.068;2023-07-31T10:45:02;98712.47;;;20.07;93.06
69842;BME280;57138;51.326;-0.068;2023-07-31T10:47:28;98723.78;;;20.15;92.21
69842;BME280;57138;51.326;-0.068;2023-07-31T10:50:11;98734.06;;;20.18;92.30
69842;BME280;57138;51.326;-0.068;2023-07-31T10:52:37;98736.81;;;20.13;90.25
69842;BME280;57138;51.326;-0.068;2023-07-31T10:57:49;98728.84;;;19.97;90.97
69842;BME280;57138;51.326;-0.068;2023-07-31T11:00:27;98727.13;;;20.06;91.51
69842;BME280;57138;51.326;-0.068;2023-07-31T11:03:04;98718.97;;;20.06;91.94
69842;BME280;57138;51.326;-0.068;2023-07-31T11:05:50;98725.03;;;20.22;90.82
69842;BME280;57138;51.326;-0.068;2023-07-31T11:10:43;98692.72;;;20.26;90.58
69842;BME280;57138;51.326;-0.068;2023-07-31T11:13:09;98714.25;;;20.41;89.96
69842;BME280;57138;51.326;-0.068;2023-07-31T11:15:35;98692.59;;;20.36;89.20
69842;BME280;57138;51.326;-0.068;2023-07-31T11:18:01;98706.53;;;20.48;88.22
69842;BME280;57138;51.326;-0.068;2023-07-31T11:20:32;98694.66;;;20.44;88.48
69842;BME280;57138;51.326;-0.068;2023-07-31T11:23:02;98668.22;;;20.31;86.17
69842;BME280;57138;51.326;-0.068;2023-07-31T11:25:31;98676.94;;;20.28;86.23
69842;BME280;57138;51.326;-0.068;2023-07-31T11:28:11;98686.03;;;20.18;86.00
69842;BME280;57138;51.326;-0.068;2023-07-31T11:30:38;98686.25;;;20.22;86.51
69842;BME280;57138;51.326;-0.068;2023-07-31T11:33:05;98698.44;;;20.24;85.01
69842;BME280;57138;51.326;-0.068;2023-07-31T11:35:40;98697.00;;;20.32;84.75
69842;BME280;57138;51.326;-0.068;2023-07-31T11:38:07;98709.63;;;20.42;82.15
69842;BME280;57138;51.326;-0.068;2023-07-31T11:40:41;98695.00;;;20.38;77.92
69842;BME280;57138;51.326;-0.068;2023-07-31T11:43:07;98687.16;;;20.36;77.79
69842;BME280;57138;51.326;-0.068;2023-07-31T11:45:32;98693.75;;;20.30;77.63
69842;BME280;57138;51.326;-0.068;2023-07-31T11:47:58;98681.41;;;20.19;77.45
69842;BME280;57138;51.326;-0.068;2023-07-31T11:50:24;98694.09;;;20.23;75.79
69842;BME280;57138;51.326;-0.068;2023-07-31T11:52:59;98729.28;;;20.34;75.25
69842;BME280;57138;51.326;-0.068;2023-07-31T11:55:26;98730.38;;;20.33;74.84
69842;BME280;57138;51.326;-0.068;2023-07-31T11:57:52;98728.75;;;20.32;74.72
69842;BME280;57138;51.326;-0.068;2023-07-31T12:00:19;98727.34;;;20.34;74.51
69842;BME280;57138;51.326;-0.068;2023-07-31T12:02:45;98726.41;;;20.44;76.04
69842;BME280;57138;51.326;-0.068;2023-07-31T12:05:14;98716.38;;;20.44;75.64
69842;BME280;57138;51.326;-0.068;2023-07-31T12:07:53;98716.53;;;20.53;75.43
69842;BME280;57138;51.326;-0.068;2023-07-31T12:10:37;98715.66;;;20.58;73.64
69842;BME280;57138;51.326;-0.068;2023-07-31T12:13:05;98710.31;;;20.53;73.55
69842;BME280;57138;51.326;-0.068;2023-07-31T12:15:59;98717.41;;;20.48;75.21
69842;BME280;57138;51.326;-0.068;2023-07-31T12:18:27;98727.59;;;20.38;72.81
69842;BME280;57138;51.326;-0.068;2023-07-31T12:20:57;98727.94;;;20.31;74.42
69842;BME280;57138;51.326;-0.068;2023-07-31T12:23:28;98717.16;;;20.26;73.76
69842;BME280;57138;51.326;-0.068;2023-07-31T12:26:04;98716.16;;;20.17;74.37
69842;BME280;57138;51.326;-0.068;2023-07-31T12:28:30;98676.28;;;19.93;73.35
69842;BME280;57138;51.326;-0.068;2023-07-31T12:31:00;98697.84;;;20.03;74.44
69842;BME280;57138;51.326;-0.068;2023-07-31T12:33:32;98695.22;;;19.98;73.97
69842;BME280;57138;51.326;-0.068;2023-07-31T12:35:59;98699.88;;;19.92;73.85
69842;BME280;57138;51.326;-0.068;2023-07-31T12:38:25;98685.66;;;19.77;74.14
69842;BME280;57138;51.326;-0.068;2023-07-31T12:40:51;98692.09;;;19.86;75.44
69842;BME280;57138;51.326;-0.068;2023-07-31T12:43:16;98675.34;;;19.73;75.17
69842;BME280;57138;51.326;-0.068;2023-07-31T12:45:43;98712.22;;;19.80;74.22
69842;BME280;57138;51.326;-0.068;2023-07-31T12:48:08;98679.84;;;19.59;74.56
69842;BME280;57138;51.326;-0.068;2023-07-31T12:50:34;98669.56;;;19.56;74.09
69842;BME280;57138;51.326;-0.068;2023-07-31T12:53:02;98689.28;;;19.62;74.10